sensor_id;sensor_type;location;lat;lon;timestamp;P1;durP1;ratioP1;P2;durP2;ratioP2
22184;SDS011;11258;52.516;13.318;2023-07-29T00:01:11;7.80;;;7.00;;
22184;SDS011;11258;52.516;13.318;2023-07-29T00:03:37;8.02;;;6.60;;
22184;SDS011;11258;52.516;13.318;2023-07-29T00:06:02;8.93;;;6.53;;
22184;SDS011;11258;52.516;13.318;2023-07-29T00:08:28;7.80;;;7.00;;
22184;SDS011;11258;52.516;13.318;2023-07-29T00:10:54;7.45;;;6.75;;
22184;SDS011;11258;52.516;13.318;2023-07-29T00:13:19;8.18;;;7.30;;
22184;SDS011;11258;52.516;13.318;2023-07-29T00:15:45;7.72;;;6.93;;
22184;SDS011;11258;52.516;13.318;2023-07-29T00:18:10;8.52;;;7.72;;
22184;SDS011;11258;52.516;13.318;2023-07-29T00:20:36;10.43;;;7.25;;
22184;SDS011;11258;52.516;13.318;2023-07-29T00:23:02;9.07;;;7.93;;
22184;SDS011;11258;52.516;13.318;2023-07-29T00:25:27;8.52;;;7.72;;
22184;SDS011;11258;52.516;13.318;2023-07-29T00:27:56;9.02;;;7.53;;
22184;SDS011;11258;52.516;13.318;2023-07-29T00:30:21;9.38;;;7.60;;
22184;SDS011;11258;52.516;13.318;2023-07-29T00:32:47;8.20;;;7.32;;
22184;SDS011;11258;52.516;13.318;2023-07-29T00:35:13;8.25;;;7.00;;
22184;SDS011;11258;52.516;13.318;2023-07-29T00:37:38;9.13;;;8.02;;
22184;SDS011;11258;52.516;13.318;2023-07-29T00:40:09;11.50;;;8.77;;
22184;SDS011;11258;52.516;13.318;2023-07-29T00:42:40;18.02;;;12.48;;
22184;SDS011;11258;52.516;13.318;2023-07-29T00:45:07;9.05;;;7.70;;
22184;SDS011;11258;52.516;13.318;2023-07-29T00:47:34;11.48;;;8.40;;
22184;SDS011;11258;52.516;13.318;2023-07-29T00:49:59;8.55;;;7.45;;
22184;SDS011;11258;52.516;13.318;2023-07-29T00:52:25;9.98;;;7.80;;
22184;SDS011;11258;52.516;13.318;2023-07-29T00:54:51;8.05;;;7.25;;
22184;SDS011;11258;52.516;13.318;2023-07-29T00:57:17;8.10;;;6.78;;
22184;SDS011;11258;52.516;13.318;2023-07-29T00:59:45;7.63;;;6.82;;
22184;SDS011;11258;52.516;13.318;2023-07-29T01:02:11;8.05;;;7.05;;
22184;SDS011;11258;52.516;13.318;2023-07-29T01:04:37;8.65;;;6.68;;
22184;SDS011;11258;52.516;13.318;2023-07-29T01:07:07;9.30;;;6.93;;
22184;SDS011;11258;52.516;13.318;2023-07-29T01:12:22;9.10;;;6.88;;
22184;SDS011;11258;52.516;13.318;2023-07-29T01:15:07;7.93;;;7.15;;
22184;SDS011;11258;52.516;13.318;2023-07-29T01:17:46;9.02;;;6.88;;
22184;SDS011;11258;52.516;13.318;2023-07-29T01:20:26;10.40;;;7.28;;
22184;SDS011;11258;52.516;13.318;2023-07-29T01:22:53;10.50;;;8.32;;
22184;SDS011;11258;52.516;13.318;2023-07-29T01:25:18;8.27;;;7.22;;
22184;SDS011;11258;52.516;13.318;2023-07-29T01:27:45;7.97;;;6.85;;
22184;SDS011;11258;52.516;13.318;2023-07-29T01:30:12;8.63;;;7.47;;
22184;SDS011;11258;52.516;13.318;2023-07-29T01:35:51;9.10;;;6.97;;
22184;SDS011;11258;52.516;13.318;2023-07-29T01:38:21;7.22;;;6.53;;
22184;SDS011;11258;52.516;13.318;2023-07-29T01:40:56;7.95;;;7.20;;
22184;SDS011;11258;52.516;13.318;2023-07-29T01:43:24;8.23;;;7.28;;
22184;SDS011;11258;52.516;13.318;2023-07-29T01:45:50;8.32;;;7.00;;
22184;SDS011;11258;52.516;13.318;2023-07-29T01:48:16;7.18;;;6.47;;
22184;SDS011;11258;52.516;13.318;2023-07-29T01:50:42;7.70;;;6.85;;
22184;SDS011;11258;52.516;13.318;2023-07-29T01:53:08;8.68;;;7.50;;
22184;SDS011;11258;52.516;13.318;2023-07-29T01:55:33;8.63;;;7.15;;
22184;SDS011;11258;52.516;13.318;2023-07-29T01:57:59;7.75;;;6.95;;
22184;SDS011;11258;52.516;13.318;2023-07-29T02:00:25;8.50;;;7.70;;
22184;SDS011;11258;52.516;13.318;2023-07-29T02:02:50;8.88;;;7.43;;
22184;SDS011;11258;52.516;13.318;2023-07-29T02:05:16;8.63;;;7.80;;
22184;SDS011;11258;52.516;13.318;2023-07-29T02:07:41;8.40;;;7.43;;
22184;SDS011;11258;52.516;13.318;2023-07-29T02:10:07;10.52;;;7.35;;
22184;SDS011;11258;52.516;13.318;2023-07-29T02:12:33;10.35;;;8.05;;
22184;SDS011;11258;52.516;13.318;2023-07-29T02:14:59;13.50;;;7.95;;
22184;SDS011;11258;52.516;13.318;2023-07-29T02:17:24;9.15;;;7.47;;
22184;SDS011;11258;52.516;13.318;2023-07-29T02:19:51;8.38;;;7.57;;
22184;SDS011;11258;52.516;13.318;2023-07-29T02:22:17;9.75;;;7.47;;
22184;SDS011;11258;52.516;13.318;2023-07-29T02:24:43;9.82;;;8.02;;
22184;SDS011;11258;52.516;13.318;2023-07-29T02:27:09;8.27;;;7.13;;
22184;SDS011;11258;52.516;13.318;2023-07-29T02:29:35;7.03;;;6.22;;
22184;SDS011;11258;52.516;13.318;2023-07-29T02:32:01;8.20;;;7.40;;
22184;SDS011;11258;52.516;13.318;2023-07-29T02:34:28;8.85;;;7.97;;
22184;SDS011;11258;52.516;13.318;2023-07-29T02:36:54;8.80;;;7.80;;
22184;SDS011;11258;52.516;13.318;2023-07-29T02:39:19;11.88;;;7.47;;
22184;SDS011;11258;52.516;13.318;2023-07-29T02:41:45;10.10;;;8.07;;
22184;SDS011;11258;52.516;13.318;2023-07-29T02:44:11;10.43;;;7.65;;
22184;SDS011;11258;52.516;13.318;2023-07-29T02:46:36;9.15;;;7.45;;
22184;SDS011;11258;52.516;13.318;2023-07-29T02:49:02;10.63;;;7.35;;
22184;SDS011;11258;52.516;13.318;2023-07-29T02:51:29;8.55;;;7.55;;
22184;SDS011;11258;52.516;13.318;2023-07-29T02:53:55;10.48;;;7.88;;
22184;SDS011;11258;52.516;13.318;2023-07-29T02:56:20;7.13;;;6.47;;
22184;SDS011;11258;52.516;13.318;2023-07-29T02:58:46;8.93;;;8.00;;
22184;SDS011;11258;52.516;13.318;2023-07-29T03:01:12;8.30;;;7.50;;
22184;SDS011;11258;52.516;13.318;2023-07-29T03:03:38;8.40;;;7.50;;
22184;SDS011;11258;52.516;13.318;2023-07-29T03:06:05;11.02;;;7.90;;
22184;SDS011;11258;52.516;13.318;2023-07-29T03:08:34;9.65;;;7.70;;
22184;SDS011;11258;52.516;13.318;2023-07-29T03:11:06;7.03;;;6.32;;
22184;SDS011;11258;52.516;13.318;2023-07-29T03:13:34;9.13;;;7.43;;
22184;SDS011;11258;52.516;13.318;2023-07-29T03:16:06;9.45;;;7.53;;
22184;SDS011;11258;52.516;13.318;2023-07-29T03:18:37;9.38;;;7.10;;
22184;SDS011;11258;52.516;13.318;2023-07-29T03:21:03;9.40;;;8.15;;
22184;SDS011;11258;52.516;13.318;2023-07-29T03:23:30;8.75;;;7.85;;
22184;SDS011;11258;52.516;13.318;2023-07-29T03:25:57;8.00;;;7.20;;
22184;SDS011;11258;52.516;13.318;2023-07-29T03:28:27;8.20;;;7.40;;
22184;SDS011;11258;52.516;13.318;2023-07-29T03:30:54;10.68;;;8.05;;
22184;SDS011;11258;52.516;13.318;2023-07-29T03:33:21;11.13;;;7.63;;
22184;SDS011;11258;52.516;13.318;2023-07-29T03:35:46;8.43;;;7.57;;
22184;SDS011;11258;52.516;13.318;2023-07-29T03:38:12;9.23;;;7.25;;
22184;SDS011;11258;52.516;13.318;2023-07-29T03:40:38;8.23;;;7.43;;
22184;SDS011;11258;52.516;13.318;2023-07-29T03:43:05;7.90;;;6.95;;
22184;SDS011;11258;52.516;13.318;2023-07-29T03:45:30;9.85;;;8.13;;
22184;SDS011;11258;52.516;13.318;2023-07-29T03:47:57;9.88;;;7.70;;
22184;SDS011;11258;52.516;13.318;2023-07-29T03:50:23;8.85;;;7.38;;
22184;SDS011;11258;52.516;13.318;2023-07-29T03:52:49;9.70;;;7.22;;
22184;SDS011;11258;52.516;13.318;2023-07-29T03:55:15;10.45;;;7.38;;
22184;SDS011;11258;52.516;13.318;2023-07-29T03:57:41;10.03;;;9.00;;
22184;SDS011;11258;52.516;13.318;2023-07-29T04:00:06;8.73;;;7.82;;
22184;SDS011;11258;52.516;13.318;2023-07-29T04:02:34;8.13;;;7.18;;
22184;SDS011;11258;52.516;13.318;2023-07-29T04:05:02;8.30;;;6.95;;
22184;SDS011;11258;52.516;13.318;2023-07-29T04:07:28;7.95;;;7.15;;
22184;SDS011;11258;52.516;13.318;2023-07-29T04:09:54;8.10;;;7.30;;
22184;SDS011;11258;52.516;13.318;2023-07-29T04:12:20;9.57;;;7.22;;
22184;SDS011;11258;52.516;13.318;2023-07-29T04:14:46;10.32;;;7.10;;
22184;SDS011;11258;52.516;13.318;2023-07-29T04:17:12;9.90;;;7.05;;
22184;SDS011;11258;52.516;13.318;2023-07-29T04:19:38;7.07;;;6.40;;
22184;SDS011;11258;52.516;13.318;2023-07-29T04:22:03;6.95;;;6.25;;
22184;SDS011;11258;52.516;13.318;2023-07-29T04:24:29;7.50;;;6.32;;
22184;SDS011;11258;52.516;13.318;2023-07-29T04:26:55;7.70;;;6.28;;
22184;SDS011;11258;52.516;13.318;2023-07-29T04:29:20;8.38;;;6.15;;
22184;SDS011;11258;52.516;13.318;2023-07-29T04:31:47;7.07;;;6.38;;
22184;SDS011;11258;52.516;13.318;2023-07-29T04:34:14;7.47;;;6.22;;
22184;SDS011;11258;52.516;13.318;2023-07-29T04:36:39;6.65;;;5.32;;
22184;SDS011;11258;52.516;13.318;2023-07-29T04:39:05;5.97;;;5.25;;
22184;SDS011;11258;52.516;13.318;2023-07-29T04:41:30;5.90;;;5.40;;
22184;SDS011;11258;52.516;13.318;2023-07-29T04:43:56;8.60;;;5.53;;
22184;SDS011;11258;52.516;13.318;2023-07-29T04:46:21;5.57;;;4.97;;
22184;SDS011;11258;52.516;13.318;2023-07-29T04:48:47;6.65;;;5.25;;
22184;SDS011;11258;52.516;13.318;2023-07-29T04:51:13;4.93;;;4.43;;
22184;SDS011;11258;52.516;13.318;2023-07-29T04:53:38;5.20;;;4.70;;
22184;SDS011;11258;52.516;13.318;2023-07-29T04:56:04;4.97;;;4.57;;
22184;SDS011;11258;52.516;13.318;2023-07-29T04:58:30;5.50;;;4.55;;
22184;SDS011;11258;52.516;13.318;2023-07-29T05:00:59;4.78;;;4.38;;
22184;SDS011;11258;52.516;13.318;2023-07-29T05:03:25;5.25;;;4.75;;
22184;SDS011;11258;52.516;13.318;2023-07-29T05:05:51;4.68;;;4.32;;
22184;SDS011;11258;52.516;13.318;2023-07-29T05:08:18;5.55;;;4.65;;
22184;SDS011;11258;52.516;13.318;2023-07-29T05:10:44;4.88;;;4.47;;
22184;SDS011;11258;52.516;13.318;2023-07-29T05:13:13;4.93;;;4.53;;
22184;SDS011;11258;52.516;13.318;2023-07-29T05:15:38;5.88;;;5.03;;
22184;SDS011;11258;52.516;13.318;2023-07-29T05:18:04;5.35;;;4.88;;
22184;SDS011;11258;52.516;13.318;2023-07-29T05:20:30;4.28;;;3.97;;
22184;SDS011;11258;52.516;13.318;2023-07-29T05:22:55;8.35;;;4.97;;
22184;SDS011;11258;52.516;13.318;2023-07-29T05:25:21;4.63;;;4.22;;
22184;SDS011;11258;52.516;13.318;2023-07-29T05:27:46;5.43;;;4.97;;
22184;SDS011;11258;52.516;13.318;2023-07-29T05:30:12;4.28;;;3.88;;
22184;SDS011;11258;52.516;13.318;2023-07-29T05:32:38;4.88;;;4.45;;
22184;SDS011;11258;52.516;13.318;2023-07-29T05:35:03;5.03;;;4.28;;
22184;SDS011;11258;52.516;13.318;2023-07-29T05:37:29;7.28;;;6.57;;
22184;SDS011;11258;52.516;13.318;2023-07-29T05:39:55;6.43;;;5.50;;
22184;SDS011;11258;52.516;13.318;2023-07-29T05:42:20;7.93;;;6.80;;
22184;SDS011;11258;52.516;13.318;2023-07-29T05:44:46;8.55;;;7.75;;
22184;SDS011;11258;52.516;13.318;2023-07-29T05:47:11;6.40;;;5.90;;
22184;SDS011;11258;52.516;13.318;2023-07-29T05:49:37;6.32;;;4.90;;
22184;SDS011;11258;52.516;13.318;2023-07-29T05:52:03;6.70;;;6.07;;
22184;SDS011;11258;52.516;13.318;2023-07-29T05:54:29;4.47;;;4.13;;
22184;SDS011;11258;52.516;13.318;2023-07-29T05:56:54;7.50;;;4.63;;
22184;SDS011;11258;52.516;13.318;2023-07-29T05:59:20;6.65;;;4.18;;
22184;SDS011;11258;52.516;13.318;2023-07-29T06:01:45;5.55;;;5.05;;
22184;SDS011;11258;52.516;13.318;2023-07-29T06:04:11;6.22;;;5.63;;
22184;SDS011;11258;52.516;13.318;2023-07-29T06:06:37;5.30;;;4.80;;
22184;SDS011;11258;52.516;13.318;2023-07-29T06:09:02;4.32;;;4.03;;
22184;SDS011;11258;52.516;13.318;2023-07-29T06:11:28;4.60;;;4.20;;
22184;SDS011;11258;52.516;13.318;2023-07-29T06:13:53;4.88;;;4.13;;
22184;SDS011;11258;52.516;13.318;2023-07-29T06:16:19;4.43;;;4.03;;
22184;SDS011;11258;52.516;13.318;2023-07-29T06:18:45;4.65;;;4.25;;
22184;SDS011;11258;52.516;13.318;2023-07-29T06:21:10;4.72;;;4.32;;
22184;SDS011;11258;52.516;13.318;2023-07-29T06:23:41;6.32;;;3.85;;
22184;SDS011;11258;52.516;13.318;2023-07-29T06:26:10;4.00;;;3.70;;
22184;SDS011;11258;52.516;13.318;2023-07-29T06:28:36;9.82;;;8.98;;
22184;SDS011;11258;52.516;13.318;2023-07-29T06:31:01;7.22;;;4.57;;
22184;SDS011;11258;52.516;13.318;2023-07-29T06:33:27;4.00;;;3.60;;
22184;SDS011;11258;52.516;13.318;2023-07-29T06:35:52;3.33;;;3.13;;
22184;SDS011;11258;52.516;13.318;2023-07-29T06:38:19;3.78;;;3.47;;
22184;SDS011;11258;52.516;13.318;2023-07-29T06:40:49;3.70;;;3.30;;
22184;SDS011;11258;52.516;13.318;2023-07-29T06:43:15;3.85;;;3.55;;
22184;SDS011;11258;52.516;13.318;2023-07-29T06:45:41;3.58;;;3.22;;
22184;SDS011;11258;52.516;13.318;2023-07-29T06:48:07;3.78;;;3.47;;
22184;SDS011;11258;52.516;13.318;2023-07-29T06:50:33;3.40;;;3.10;;
22184;SDS011;11258;52.516;13.318;2023-07-29T06:52:59;4.07;;;3.78;;
22184;SDS011;11258;52.516;13.318;2023-07-29T06:55:24;3.70;;;3.38;;
22184;SDS011;11258;52.516;13.318;2023-07-29T06:57:50;4.07;;;3.60;;
22184;SDS011;11258;52.516;13.318;2023-07-29T07:00:15;3.35;;;3.08;;
22184;SDS011;11258;52.516;13.318;2023-07-29T07:02:41;3.70;;;3.40;;
22184;SDS011;11258;52.516;13.318;2023-07-29T07:05:07;3.45;;;3.20;;
22184;SDS011;11258;52.516;13.318;2023-07-29T07:07:33;3.75;;;3.40;;
22184;SDS011;11258;52.516;13.318;2023-07-29T07:09:58;6.82;;;5.97;;
22184;SDS011;11258;52.516;13.318;2023-07-29T07:12:24;6.35;;;5.75;;
22184;SDS011;11258;52.516;13.318;2023-07-29T07:14:50;4.72;;;4.25;;
22184;SDS011;11258;52.516;13.318;2023-07-29T07:17:15;4.70;;;3.53;;
22184;SDS011;11258;52.516;13.318;2023-07-29T07:19:41;4.47;;;3.47;;
22184;SDS011;11258;52.516;13.318;2023-07-29T07:22:07;9.27;;;8.30;;
22184;SDS011;11258;52.516;13.318;2023-07-29T07:24:32;8.68;;;7.15;;
22184;SDS011;11258;52.516;13.318;2023-07-29T07:26:58;4.85;;;4.30;;
22184;SDS011;11258;52.516;13.318;2023-07-29T07:29:23;6.13;;;4.47;;
22184;SDS011;11258;52.516;13.318;2023-07-29T07:31:52;4.35;;;3.92;;
22184;SDS011;11258;52.516;13.318;2023-07-29T07:34:19;3.80;;;3.50;;
22184;SDS011;11258;52.516;13.318;2023-07-29T07:36:46;4.18;;;3.65;;
22184;SDS011;11258;52.516;13.318;2023-07-29T07:39:12;4.57;;;4.18;;
22184;SDS011;11258;52.516;13.318;2023-07-29T07:41:38;5.63;;;4.22;;
22184;SDS011;11258;52.516;13.318;2023-07-29T07:44:03;3.63;;;3.33;;
22184;SDS011;11258;52.516;13.318;2023-07-29T07:46:29;3.78;;;3.30;;
22184;SDS011;11258;52.516;13.318;2023-07-29T07:48:55;4.20;;;3.90;;
22184;SDS011;11258;52.516;13.318;2023-07-29T07:51:20;2.90;;;2.70;;
22184;SDS011;11258;52.516;13.318;2023-07-29T07:53:46;3.28;;;2.92;;
22184;SDS011;11258;52.516;13.318;2023-07-29T07:56:12;3.63;;;2.80;;
22184;SDS011;11258;52.516;13.318;2023-07-29T07:58:38;2.70;;;2.50;;
22184;SDS011;11258;52.516;13.318;2023-07-29T08:01:04;2.90;;;2.65;;
22184;SDS011;11258;52.516;13.318;2023-07-29T08:03:31;3.50;;;3.20;;
22184;SDS011;11258;52.516;13.318;2023-07-29T08:05:57;3.17;;;2.88;;
22184;SDS011;11258;52.516;13.318;2023-07-29T08:08:22;2.90;;;2.53;;
22184;SDS011;11258;52.516;13.318;2023-07-29T08:10:48;3.40;;;3.00;;
22184;SDS011;11258;52.516;13.318;2023-07-29T08:13:14;3.58;;;3.28;;
22184;SDS011;11258;52.516;13.318;2023-07-29T08:15:39;3.40;;;3.10;;
22184;SDS011;11258;52.516;13.318;2023-07-29T08:18:06;3.00;;;2.80;;
22184;SDS011;11258;52.516;13.318;2023-07-29T08:20:32;3.22;;;3.03;;
22184;SDS011;11258;52.516;13.318;2023-07-29T08:22:57;3.22;;;3.03;;
22184;SDS011;11258;52.516;13.318;2023-07-29T08:25:23;4.45;;;3.15;;
22184;SDS011;11258;52.516;13.318;2023-07-29T08:27:49;2.65;;;2.45;;
22184;SDS011;11258;52.516;13.318;2023-07-29T08:30:14;3.47;;;3.17;;
22184;SDS011;11258;52.516;13.318;2023-07-29T08:32:41;4.47;;;3.08;;
22184;SDS011;11258;52.516;13.318;2023-07-29T08:35:07;2.72;;;2.53;;
22184;SDS011;11258;52.516;13.318;2023-07-29T08:37:32;3.33;;;2.88;;
22184;SDS011;11258;52.516;13.318;2023-07-29T08:39:58;2.78;;;2.55;;
22184;SDS011;11258;52.516;13.318;2023-07-29T08:42:25;4.70;;;3.03;;
22184;SDS011;11258;52.516;13.318;2023-07-29T08:44:55;3.15;;;2.85;;
22184;SDS011;11258;52.516;13.318;2023-07-29T08:47:23;4.78;;;3.35;;
22184;SDS011;11258;52.516;13.318;2023-07-29T08:49:49;3.72;;;2.75;;
22184;SDS011;11258;52.516;13.318;2023-07-29T08:52:17;3.80;;;3.20;;
22184;SDS011;11258;52.516;13.318;2023-07-29T08:54:43;3.35;;;3.05;;
22184;SDS011;11258;52.516;13.318;2023-07-29T08:57:09;4.05;;;2.95;;
22184;SDS011;11258;52.516;13.318;2023-07-29T08:59:35;2.80;;;2.60;;
22184;SDS011;11258;52.516;13.318;2023-07-29T09:02:02;4.00;;;3.00;;
22184;SDS011;11258;52.516;13.318;2023-07-29T09:04:28;3.08;;;2.78;;
22184;SDS011;11258;52.516;13.318;2023-07-29T09:06:54;4.55;;;3.22;;
22184;SDS011;11258;52.516;13.318;2023-07-29T09:09:21;3.75;;;2.85;;
22184;SDS011;11258;52.516;13.318;2023-07-29T09:11:47;3.10;;;2.90;;
22184;SDS011;11258;52.516;13.318;2023-07-29T09:14:13;3.10;;;2.90;;
22184;SDS011;11258;52.516;13.318;2023-07-29T09:16:39;3.78;;;2.60;;
22184;SDS011;11258;52.516;13.318;2023-07-29T09:19:06;3.53;;;3.22;;
22184;SDS011;11258;52.516;13.318;2023-07-29T09:21:32;2.85;;;2.65;;
22184;SDS011;11258;52.516;13.318;2023-07-29T09:23:58;2.72;;;2.53;;
22184;SDS011;11258;52.516;13.318;2023-07-29T09:26:28;3.67;;;2.47;;
22184;SDS011;11258;52.516;13.318;2023-07-29T09:28:55;4.78;;;2.80;;
22184;SDS011;11258;52.516;13.318;2023-07-29T09:31:22;2.65;;;2.45;;
22184;SDS011;11258;52.516;13.318;2023-07-29T09:33:49;2.88;;;2.67;;
22184;SDS011;11258;52.516;13.318;2023-07-29T09:36:15;4.43;;;2.60;;
22184;SDS011;11258;52.516;13.318;2023-07-29T09:38:41;2.80;;;2.60;;
22184;SDS011;11258;52.516;13.318;2023-07-29T09:41:07;5.18;;;4.65;;
22184;SDS011;11258;52.516;13.318;2023-07-29T09:43:36;9.55;;;7.72;;
22184;SDS011;11258;52.516;13.318;2023-07-29T09:46:02;6.53;;;5.05;;
22184;SDS011;11258;52.516;13.318;2023-07-29T09:48:33;5.28;;;4.47;;
22184;SDS011;11258;52.516;13.318;2023-07-29T09:50:59;6.72;;;4.25;;
22184;SDS011;11258;52.516;13.318;2023-07-29T09:53:34;5.25;;;3.60;;
22184;SDS011;11258;52.516;13.318;2023-07-29T09:56:15;6.13;;;4.88;;
22184;SDS011;11258;52.516;13.318;2023-07-29T09:58:42;4.05;;;3.03;;
22184;SDS011;11258;52.516;13.318;2023-07-29T10:01:13;3.28;;;2.97;;
22184;SDS011;11258;52.516;13.318;2023-07-29T10:03:39;2.50;;;2.30;;
22184;SDS011;11258;52.516;13.318;2023-07-29T10:06:06;3.25;;;2.58;;
22184;SDS011;11258;52.516;13.318;2023-07-29T10:08:32;2.20;;;2.10;;
22184;SDS011;11258;52.516;13.318;2023-07-29T10:11:03;4.82;;;2.45;;
22184;SDS011;11258;52.516;13.318;2023-07-29T10:13:34;2.53;;;2.33;;
22184;SDS011;11258;52.516;13.318;2023-07-29T10:16:00;2.58;;;2.33;;
22184;SDS011;11258;52.516;13.318;2023-07-29T10:18:31;3.03;;;2.83;;
22184;SDS011;11258;52.516;13.318;2023-07-29T10:20:57;2.65;;;2.35;;
22184;SDS011;11258;52.516;13.318;2023-07-29T10:23:27;2.15;;;1.95;;
22184;SDS011;11258;52.516;13.318;2023-07-29T10:26:02;2.05;;;1.95;;
22184;SDS011;11258;52.516;13.318;2023-07-29T10:28:30;7.38;;;4.85;;
22184;SDS011;11258;52.516;13.318;2023-07-29T10:30:57;4.80;;;3.78;;
22184;SDS011;11258;52.516;13.318;2023-07-29T10:33:23;4.03;;;3.28;;
22184;SDS011;11258;52.516;13.318;2023-07-29T10:35:49;2.97;;;2.70;;
22184;SDS011;11258;52.516;13.318;2023-07-29T10:38:15;2.28;;;2.08;;
22184;SDS011;11258;52.516;13.318;2023-07-29T10:40:50;2.95;;;2.65;;
22184;SDS011;11258;52.516;13.318;2023-07-29T10:43:20;5.05;;;2.25;;
22184;SDS011;11258;52.516;13.318;2023-07-29T10:45:50;3.33;;;2.03;;
22184;SDS011;11258;52.516;13.318;2023-07-29T10:54:01;2.50;;;2.30;;
22184;SDS011;11258;52.516;13.318;2023-07-29T10:56:31;2.00;;;1.90;;
22184;SDS011;11258;52.516;13.318;2023-07-29T10:58:59;2.50;;;1.90;;
22184;SDS011;11258;52.516;13.318;2023-07-29T11:01:57;3.50;;;2.38;;
22184;SDS011;11258;52.516;13.318;2023-07-29T11:04:24;2.90;;;2.00;;
22184;SDS011;11258;52.516;13.318;2023-07-29T11:17:33;8.57;;;2.92;;
22184;SDS011;11258;52.516;13.318;2023-07-29T11:20:02;8.75;;;5.10;;
22184;SDS011;11258;52.516;13.318;2023-07-29T11:22:29;2.70;;;1.40;;
22184;SDS011;11258;52.516;13.318;2023-07-29T11:24:55;2.08;;;1.50;;
22184;SDS011;11258;52.516;13.318;2023-07-29T11:27:21;5.28;;;2.63;;
22184;SDS011;11258;52.516;13.318;2023-07-29T11:29:47;4.38;;;2.33;;
22184;SDS011;11258;52.516;13.318;2023-07-29T11:32:13;2.63;;;1.67;;
22184;SDS011;11258;52.516;13.318;2023-07-29T11:34:40;2.75;;;1.75;;
22184;SDS011;11258;52.516;13.318;2023-07-29T11:37:07;1.58;;;1.20;;
22184;SDS011;11258;52.516;13.318;2023-07-29T11:39:39;2.92;;;1.30;;
22184;SDS011;11258;52.516;13.318;2023-07-29T11:42:06;2.75;;;1.55;;
22184;SDS011;11258;52.516;13.318;2023-07-29T11:44:32;4.75;;;2.38;;
22184;SDS011;11258;52.516;13.318;2023-07-29T11:46:57;2.72;;;1.17;;
22184;SDS011;11258;52.516;13.318;2023-07-29T11:49:23;3.95;;;2.03;;
22184;SDS011;11258;52.516;13.318;2023-07-29T11:51:48;7.57;;;3.38;;
22184;SDS011;11258;52.516;13.318;2023-07-29T11:54:15;5.63;;;1.80;;
22184;SDS011;11258;52.516;13.318;2023-07-29T11:56:40;2.17;;;1.40;;
22184;SDS011;11258;52.516;13.318;2023-07-29T11:59:06;6.00;;;2.17;;
22184;SDS011;11258;52.516;13.318;2023-07-29T12:01:32;4.53;;;2.28;;
22184;SDS011;11258;52.516;13.318;2023-07-29T12:03:58;5.22;;;2.45;;
22184;SDS011;11258;52.516;13.318;2023-07-29T12:06:24;2.03;;;1.42;;
22184;SDS011;11258;52.516;13.318;2023-07-29T12:08:50;3.65;;;2.47;;
22184;SDS011;11258;52.516;13.318;2023-07-29T12:11:16;3.05;;;2.38;;
22184;SDS011;11258;52.516;13.318;2023-07-29T12:13:43;2.40;;;1.95;;
22184;SDS011;11258;52.516;13.318;2023-07-29T12:16:08;4.38;;;2.03;;
22184;SDS011;11258;52.516;13.318;2023-07-29T12:18:35;3.35;;;2.20;;
22184;SDS011;11258;52.516;13.318;2023-07-29T12:21:01;2.42;;;1.63;;
22184;SDS011;11258;52.516;13.318;2023-07-29T12:23:28;3.30;;;1.92;;
22184;SDS011;11258;52.516;13.318;2023-07-29T12:25:57;2.00;;;1.80;;
22184;SDS011;11258;52.516;13.318;2023-07-29T12:28:24;3.22;;;1.67;;
22184;SDS011;11258;52.516;13.318;2023-07-29T12:30:54;4.47;;;1.90;;
22184;SDS011;11258;52.516;13.318;2023-07-29T12:35:56;3.78;;;1.80;;
22184;SDS011;11258;52.516;13.318;2023-07-29T12:38:21;4.15;;;2.63;;
22184;SDS011;11258;52.516;13.318;2023-07-29T12:40:47;2.88;;;2.40;;
22184;SDS011;11258;52.516;13.318;2023-07-29T12:43:13;3.97;;;2.53;;
22184;SDS011;11258;52.516;13.318;2023-07-29T12:45:38;3.08;;;2.80;;
22184;SDS011;11258;52.516;13.318;2023-07-29T12:48:06;2.35;;;2.15;;
22184;SDS011;11258;52.516;13.318;2023-07-29T12:50:32;2.65;;;2.05;;
22184;SDS011;11258;52.516;13.318;2023-07-29T12:52:58;3.97;;;2.08;;
22184;SDS011;11258;52.516;13.318;2023-07-29T12:55:23;3.70;;;2.40;;
22184;SDS011;11258;52.516;13.318;2023-07-29T12:57:49;3.00;;;2.30;;
22184;SDS011;11258;52.516;13.318;2023-07-29T13:00:15;2.60;;;2.40;;
22184;SDS011;11258;52.516;13.318;2023-07-29T13:02:41;3.13;;;2.38;;
22184;SDS011;11258;52.516;13.318;2023-07-29T13:05:08;4.68;;;2.92;;
22184;SDS011;11258;52.516;13.318;2023-07-29T13:07:41;2.78;;;2.42;;
22184;SDS011;11258;52.516;13.318;2023-07-29T13:10:08;8.13;;;5.63;;
22184;SDS011;11258;52.516;13.318;2023-07-29T13:12:34;2.85;;;2.53;;
22184;SDS011;11258;52.516;13.318;2023-07-29T13:14:59;5.07;;;3.45;;
22184;SDS011;11258;52.516;13.318;2023-07-29T13:17:25;5.80;;;4.03;;
22184;SDS011;11258;52.516;13.318;2023-07-29T13:19:51;3.97;;;3.38;;
22184;SDS011;11258;52.516;13.318;2023-07-29T13:22:17;3.55;;;3.05;;
22184;SDS011;11258;52.516;13.318;2023-07-29T13:24:42;2.85;;;2.63;;
22184;SDS011;11258;52.516;13.318;2023-07-29T13:27:08;3.17;;;2.88;;
22184;SDS011;11258;52.516;13.318;2023-07-29T13:29:34;2.42;;;2.22;;
22184;SDS011;11258;52.516;13.318;2023-07-29T13:31:59;2.63;;;2.40;;
22184;SDS011;11258;52.516;13.318;2023-07-29T13:34:25;3.55;;;3.00;;
22184;SDS011;11258;52.516;13.318;2023-07-29T13:36:50;4.82;;;3.45;;
22184;SDS011;11258;52.516;13.318;2023-07-29T13:39:16;3.58;;;2.90;;
22184;SDS011;11258;52.516;13.318;2023-07-29T13:41:42;4.07;;;2.85;;
22184;SDS011;11258;52.516;13.318;2023-07-29T13:44:07;3.75;;;3.10;;
22184;SDS011;11258;52.516;13.318;2023-07-29T13:46:33;3.85;;;1.85;;
22184;SDS011;11258;52.516;13.318;2023-07-29T13:48:58;1.60;;;1.45;;
22184;SDS011;11258;52.516;13.318;2023-07-29T13:51:24;2.05;;;1.42;;
22184;SDS011;11258;52.516;13.318;2023-07-29T13:53:50;1.30;;;1.20;;
22184;SDS011;11258;52.516;13.318;2023-07-29T13:56:15;1.20;;;1.10;;
22184;SDS011;11258;52.516;13.318;2023-07-29T13:58:41;1.63;;;1.45;;
22184;SDS011;11258;52.516;13.318;2023-07-29T14:01:07;2.38;;;1.63;;
22184;SDS011;11258;52.516;13.318;2023-07-29T14:03:32;1.55;;;1.10;;
22184;SDS011;11258;52.516;13.318;2023-07-29T14:05:58;3.92;;;1.90;;
22184;SDS011;11258;52.516;13.318;2023-07-29T14:08:23;2.92;;;1.65;;
22184;SDS011;11258;52.516;13.318;2023-07-29T14:10:49;2.50;;;1.58;;
22184;SDS011;11258;52.516;13.318;2023-07-29T14:13:15;2.70;;;2.33;;
22184;SDS011;11258;52.516;13.318;2023-07-29T14:15:40;4.05;;;2.70;;
22184;SDS011;11258;52.516;13.318;2023-07-29T14:18:06;4.40;;;3.50;;
22184;SDS011;11258;52.516;13.318;2023-07-29T14:20:32;3.17;;;1.48;;
22184;SDS011;11258;52.516;13.318;2023-07-29T14:22:58;1.75;;;1.65;;
22184;SDS011;11258;52.516;13.318;2023-07-29T14:25:24;1.60;;;1.50;;
22184;SDS011;11258;52.516;13.318;2023-07-29T14:27:50;2.03;;;1.60;;
22184;SDS011;11258;52.516;13.318;2023-07-29T14:30:15;2.67;;;1.65;;
22184;SDS011;11258;52.516;13.318;2023-07-29T14:32:41;4.22;;;3.15;;
22184;SDS011;11258;52.516;13.318;2023-07-29T14:35:07;2.13;;;1.95;;
22184;SDS011;11258;52.516;13.318;2023-07-29T14:37:33;1.88;;;1.60;;
22184;SDS011;11258;52.516;13.318;2023-07-29T14:39:59;1.45;;;1.35;;
22184;SDS011;11258;52.516;13.318;2023-07-29T14:42:25;2.40;;;1.70;;
22184;SDS011;11258;52.516;13.318;2023-07-29T14:44:52;2.20;;;1.52;;
22184;SDS011;11258;52.516;13.318;2023-07-29T14:47:17;3.00;;;1.30;;
22184;SDS011;11258;52.516;13.318;2023-07-29T14:49:43;1.42;;;1.30;;
22184;SDS011;11258;52.516;13.318;2023-07-29T14:52:10;2.35;;;1.30;;
22184;SDS011;11258;52.516;13.318;2023-07-29T14:54:35;4.32;;;2.63;;